Terminal Aerodrome Forecast
Issued by NWS Houston/Galveston, TX

Current Version | Previous Version | Text Only | Print | Product List | Glossary On
Versions: 1 2 3 4 5 6 7 8 9 10 11 12 13 14 15 16 17 18 19 20 21 22 23 24 25 26 27 28 29 30 31 32 33 34 35 36 37 38 39 40 41 42 43 44 45 46 47 48 49 50
000
FTUS44 KHGX 231410 AAA
TAFCLL
TAF AMD
KCLL 231410Z 2314/2412 13010KT P6SM VCSH FEW045 BKN070 OVC090
      TEMPO 2314/2317 -RA BKN045
     FM231800 15014KT P6SM VCTS SCT025 BKN035CB
     FM240300 14009KT P6SM VCSH BKN015 BKN025
     FM240600 15012KT P6SM VCTS BKN015CB
     FM240900 15011G21KT 3SM TSRA BR BKN015CB=

USA.gov is the U.S. government's official web portal to all federal, state and local government web resources and services.